ADDS METAR Data INFO
IDs: Format: Raw Decoded Include TAF

Data at: 2021 UTC 20 Jul 2018

KDUG 201956Z AUTO 23006KT CLR 32/13 A3008 RMK AO2 SLP107 T03220133 $
KDUG 201856Z AUTO 17006KT 10SM CLR 31/14 A3010 RMK AO2 SLP118 T03060144
KDUG 201756Z AUTO 04003KT 10SM FEW040 SCT100 SCT120 27/14 A3012 RMK AO2 RAB21E50 TSB07E30 SLP128 P0000 60000 T02720144 10278 20200 58009
KDUG 201736Z AUTO 18005KT 10SM -RA FEW049 FEW080 BKN095 25/17 A3013 RMK AO2 RAB21 TSB07E30 PRESFR P0000 T02500172
KDUG 201713Z AUTO 11009KT 10SM TS SCT090 BKN120 27/17 A3016 RMK AO2 TSB07 T02720172
KDUG 201656Z AUTO 11005KT 10SM VCTS FEW120 27/17 A3016 RMK AO2 LTG DSNT E SLP141 T02720167
KDUG 201556Z AUTO 19006KT 10SM CLR 26/17 A3015 RMK AO2 LTG DSNT E AND SE SLP138 T02610172
KDUG 201456Z AUTO 16005KT 10SM FEW120 25/17 A3016 RMK AO2 SLP137 T02500172 51015
KDUG 201356Z AUTO 12005KT 10SM CLR 23/17 A3014 RMK AO2 SLP133 T02280172
KDUG 201256Z AUTO 11004KT 10SM CLR 21/17 A3013 RMK AO2 SLP128 T02110167 $
KDUG 201156Z AUTO 17003KT 10SM CLR 20/16 A3010 RMK AO2 SLP116 T02000156 10233 20200 53006 $
KDUG 201056Z AUTO 20004KT 10SM CLR 21/16 A3009 RMK AO2 SLP108 T02110161 $
KDUG 200956Z AUTO 31003KT 10SM CLR 21/16 A3009 RMK AO2 SLP105 T02110161 $
KDUG 200856Z AUTO 35006KT 10SM CLR 22/17 A3008 RMK AO2 SLP104 T02220167 $
KDUG 200756Z AUTO 00000KT 10SM CLR 22/16 A3009 RMK AO2 SLP109 T02170161 $
KDUG 200656Z AUTO 31004KT 10SM 23/16 A3010 RMK AO2 SLP112 T02280156 403720206 $
KDUG 200556Z AUTO 35004KT 10SM CLR 23/16 A3010 RMK AO2 SLP112 T02330156 10361 20228 53001
KDUG 200456Z AUTO 04003KT 10SM CLR 23/16 A3009 RMK AO2 SLP115 T02330156
KDUG 200356Z AUTO 01010KT 10SM CLR 25/16 A3009 RMK AO2 SLP114 T02500156
KDUG 200256Z AUTO 33022G26KT 10SM CLR 27/16 A3009 RMK AO2 PK WND 33026/0255 LTG DSNT N AND NE SLP116 T02670156 53026
KDUG 200156Z AUTO 31008KT 10SM CLR 29/16 A3005 RMK AO2 LTG DSNT NE AND NW SLP100 T02890161
KDUG 200056Z AUTO 29015KT 10SM CLR 31/15 A3003 RMK AO2 LTG DSNT W AND NW SLP093 T03060150
KDUG 200020Z AUTO 30010G21KT 10SM BKN110 33/13 A3001 RMK AO2 LTG DSNT SW T03280128
KDUG 200005Z AUTO VRB04KT 10SM VCTS BKN100 36/08 A3000 RMK AO2 LTG DSNT W AND NW T03560078
KDUG 192356Z AUTO VRB06KT 10SM BKN110 36/08 A3001 RMK AO2 LTG DSNT W AND NW SLP077 T03560078 10372 20317 55018
KDUG 192256Z AUTO 00000KT 10SM BKN100 36/09 A3001 RMK AO2 LTG DSNT W SLP077 T03560089
KDUG 192156Z AUTO VRB04KT 10SM CLR 36/09 A3004 RMK AO2 SLP088 T03610094
KDUG 192056Z AUTO 25006KT 10SM SCT095 36/11 A3007 RMK AO2 SLP097 T03560111 58025
KDUG 191956Z AUTO 20005KT 10SM CLR 34/13 A3009 RMK AO2 SLP107 T03440128
KDUG 191856Z AUTO VRB03KT 10SM CLR 33/16 A3013 RMK AO2 SLP120 T03280156
KDUG 191756Z AUTO VRB05KT 10SM CLR 32/17 A3015 RMK AO2 SLP126 T03170167 10317 20206 58010
KDUG 191656Z AUTO 00000KT 10SM CLR 29/17 A3016 RMK AO2 SLP134 T02940172
KDUG 191556Z AUTO 28005KT 10SM CLR 28/18 A3018 RMK AO2 SLP136 T02780178
KDUG 191456Z AUTO 29004KT 10SM CLR 26/18 A3018 RMK AO2 SLP140 T02560178 51011
KDUG 191356Z AUTO 10SM CLR 24/17 A3018 RMK AO2 SLP138 T02390172
KDUG 191256Z AUTO 11004KT 10SM CLR 21/17 A3016 RMK AO2 SLP134 T02110172
KDUG 191156Z AUTO 20004KT 10SM CLR 22/18 A3014 RMK AO2 SLP129 T02220178 10267 20211 53001
KDUG 191056Z AUTO 17003KT 10SM CLR 22/18 A3014 RMK AO2 SLP125 T02170178
KDUG 190956Z AUTO 36006KT 10SM CLR 23/18 A3013 RMK AO2 SLP121 T02280178
KDUG 190856Z AUTO 01006KT 10SM CLR 23/18 A3014 RMK AO2 SLP126 T02280178 58004